sensor_id;sensor_type;location;lat;lon;timestamp;pressure;altitude;pressure_sealevel;temperature;humidity
29825;BME280;16713;52.916;12.834;2023-08-20T00:00:58;101252.28;;;22.75;83.16
29825;BME280;16713;52.916;12.834;2023-08-20T00:03:25;101250.28;;;22.75;83.89
29825;BME280;16713;52.916;12.834;2023-08-20T00:05:51;101262.56;;;22.81;82.89
29825;BME280;16713;52.916;12.834;2023-08-20T00:08:18;101251.34;;;22.85;82.47
29825;BME280;16713;52.916;12.834;2023-08-20T00:10:45;101269.72;;;22.86;82.96
29825;BME280;16713;52.916;12.834;2023-08-20T00:13:11;101255.28;;;22.87;82.49
29825;BME280;16713;52.916;12.834;2023-08-20T00:15:38;101265.63;;;22.90;82.26
29825;BME280;16713;52.916;12.834;2023-08-20T00:18:05;101273.25;;;22.90;82.62
29825;BME280;16713;52.916;12.834;2023-08-20T00:20:31;101267.59;;;22.94;83.18
29825;BME280;16713;52.916;12.834;2023-08-20T00:22:58;101275.16;;;22.97;83.17
29825;BME280;16713;52.916;12.834;2023-08-20T00:25:25;101285.97;;;22.95;82.86
29825;BME280;16713;52.916;12.834;2023-08-20T00:27:51;101292.00;;;22.93;82.22
29825;BME280;16713;52.916;12.834;2023-08-20T00:30:18;101303.13;;;22.97;82.96
29825;BME280;16713;52.916;12.834;2023-08-20T00:32:44;101311.56;;;22.93;83.17
29825;BME280;16713;52.916;12.834;2023-08-20T00:35:11;101303.19;;;22.93;82.86
29825;BME280;16713;52.916;12.834;2023-08-20T00:37:38;101305.19;;;22.93;83.08
29825;BME280;16713;52.916;12.834;2023-08-20T00:40:05;101317.97;;;22.94;82.37
29825;BME280;16713;52.916;12.834;2023-08-20T00:42:32;101311.19;;;22.91;83.40
29825;BME280;16713;52.916;12.834;2023-08-20T00:44:58;101314.38;;;22.93;82.78
29825;BME280;16713;52.916;12.834;2023-08-20T00:47:24;101304.50;;;22.85;83.66
29825;BME280;16713;52.916;12.834;2023-08-20T00:49:52;101313.31;;;22.83;83.46
29825;BME280;16713;52.916;12.834;2023-08-20T00:52:20;101314.06;;;22.84;83.78
29825;BME280;16713;52.916;12.834;2023-08-20T00:54:47;101316.50;;;22.85;82.85
29825;BME280;16713;52.916;12.834;2023-08-20T00:57:14;101326.91;;;22.85;82.77
29825;BME280;16713;52.916;12.834;2023-08-20T00:59:41;101319.78;;;22.77;83.48
29825;BME280;16713;52.916;12.834;2023-08-20T01:02:08;101316.56;;;22.78;83.62
29825;BME280;16713;52.916;12.834;2023-08-20T01:04:34;101316.56;;;22.78;82.95
29825;BME280;16713;52.916;12.834;2023-08-20T01:07:33;101323.41;;;22.77;83.36
29825;BME280;16713;52.916;12.834;2023-08-20T01:10:18;101321.78;;;22.76;83.16
29825;BME280;16713;52.916;12.834;2023-08-20T01:12:46;101319.41;;;22.75;82.85
29825;BME280;16713;52.916;12.834;2023-08-20T01:15:12;101317.91;;;22.70;83.67
29825;BME280;16713;52.916;12.834;2023-08-20T01:17:41;101327.09;;;22.71;82.91
29825;BME280;16713;52.916;12.834;2023-08-20T01:20:09;101323.59;;;22.63;83.55
29825;BME280;16713;52.916;12.834;2023-08-20T01:22:52;101332.31;;;22.69;83.77
29825;BME280;16713;52.916;12.834;2023-08-20T01:30:48;101333.09;;;22.69;83.64
29825;BME280;16713;52.916;12.834;2023-08-20T01:33:16;101343.06;;;22.70;83.19
29825;BME280;16713;52.916;12.834;2023-08-20T01:35:42;101341.13;;;22.67;83.36
29825;BME280;16713;52.916;12.834;2023-08-20T01:38:09;101339.81;;;22.75;83.44
29825;BME280;16713;52.916;12.834;2023-08-20T01:40:35;101341.81;;;22.75;82.55
29825;BME280;16713;52.916;12.834;2023-08-20T01:43:02;101344.97;;;22.77;82.51
29825;BME280;16713;52.916;12.834;2023-08-20T01:45:28;101355.38;;;22.76;82.35
29825;BME280;16713;52.916;12.834;2023-08-20T01:47:55;101351.41;;;22.74;82.84
29825;BME280;16713;52.916;12.834;2023-08-20T01:50:21;101356.38;;;22.63;83.16
29825;BME280;16713;52.916;12.834;2023-08-20T01:52:48;101351.97;;;22.62;83.79
29825;BME280;16713;52.916;12.834;2023-08-20T01:55:14;101351.25;;;22.58;83.38
29825;BME280;16713;52.916;12.834;2023-08-20T01:57:41;101354.69;;;22.69;83.39
29825;BME280;16713;52.916;12.834;2023-08-20T02:00:07;101363.47;;;22.71;82.76
29825;BME280;16713;52.916;12.834;2023-08-20T02:02:34;101364.00;;;22.59;83.23
29825;BME280;16713;52.916;12.834;2023-08-20T02:05:01;101364.38;;;22.61;83.87
29825;BME280;16713;52.916;12.834;2023-08-20T02:07:28;101377.16;;;22.62;84.02
29825;BME280;16713;52.916;12.834;2023-08-20T02:09:54;101375.16;;;22.62;83.11
29825;BME280;16713;52.916;12.834;2023-08-20T02:12:21;101381.47;;;22.66;83.46
29825;BME280;16713;52.916;12.834;2023-08-20T02:14:47;101383.22;;;22.57;84.34
29825;BME280;16713;52.916;12.834;2023-08-20T02:17:14;101395.53;;;22.63;83.56
29825;BME280;16713;52.916;12.834;2023-08-20T02:19:40;101384.16;;;22.47;84.68
29825;BME280;16713;52.916;12.834;2023-08-20T02:22:07;101386.44;;;22.55;83.88
29825;BME280;16713;52.916;12.834;2023-08-20T02:24:33;101397.16;;;22.60;83.46
29825;BME280;16713;52.916;12.834;2023-08-20T02:27:00;101396.78;;;22.58;83.66
29825;BME280;16713;52.916;12.834;2023-08-20T02:29:26;101393.09;;;22.65;83.48
29825;BME280;16713;52.916;12.834;2023-08-20T02:31:52;101395.00;;;22.71;83.27
29825;BME280;16713;52.916;12.834;2023-08-20T02:34:19;101396.19;;;22.74;83.07
29825;BME280;16713;52.916;12.834;2023-08-20T02:36:45;101398.13;;;22.77;82.91
29825;BME280;16713;52.916;12.834;2023-08-20T02:39:13;101409.78;;;22.72;83.43
29825;BME280;16713;52.916;12.834;2023-08-20T02:41:39;101404.53;;;22.77;83.11
29825;BME280;16713;52.916;12.834;2023-08-20T02:44:06;101408.03;;;22.81;82.52
29825;BME280;16713;52.916;12.834;2023-08-20T02:46:32;101405.84;;;22.69;83.09
29825;BME280;16713;52.916;12.834;2023-08-20T02:48:59;101401.78;;;22.74;83.28
29825;BME280;16713;52.916;12.834;2023-08-20T02:51:25;101391.25;;;22.81;82.55
29825;BME280;16713;52.916;12.834;2023-08-20T02:53:51;101391.47;;;22.67;82.76
29825;BME280;16713;52.916;12.834;2023-08-20T02:56:18;101389.09;;;22.66;82.63
29825;BME280;16713;52.916;12.834;2023-08-20T02:58:45;101394.56;;;22.73;83.41
29825;BME280;16713;52.916;12.834;2023-08-20T03:01:22;101391.34;;;22.74;83.27
29825;BME280;16713;52.916;12.834;2023-08-20T03:03:49;101393.25;;;22.54;83.13
29825;BME280;16713;52.916;12.834;2023-08-20T03:06:16;101394.03;;;22.55;83.32
29825;BME280;16713;52.916;12.834;2023-08-20T03:08:42;101397.09;;;22.64;83.24
29825;BME280;16713;52.916;12.834;2023-08-20T03:11:09;101400.38;;;22.59;82.70
29825;BME280;16713;52.916;12.834;2023-08-20T03:13:36;101396.88;;;22.51;83.91
29825;BME280;16713;52.916;12.834;2023-08-20T03:16:02;101394.47;;;22.53;83.69
29825;BME280;16713;52.916;12.834;2023-08-20T03:18:29;101392.34;;;22.61;83.80
29825;BME280;16713;52.916;12.834;2023-08-20T03:20:56;101399.69;;;22.51;83.19
29825;BME280;16713;52.916;12.834;2023-08-20T03:23:23;101403.22;;;22.55;83.59
29825;BME280;16713;52.916;12.834;2023-08-20T03:25:50;101405.22;;;22.55;83.48
29825;BME280;16713;52.916;12.834;2023-08-20T03:28:21;101411.81;;;22.38;83.99
29825;BME280;16713;52.916;12.834;2023-08-20T03:30:47;101417.31;;;22.48;84.03
29825;BME280;16713;52.916;12.834;2023-08-20T03:33:14;101414.81;;;22.54;83.37
29825;BME280;16713;52.916;12.834;2023-08-20T03:35:41;101422.00;;;22.55;83.64
29825;BME280;16713;52.916;12.834;2023-08-20T03:38:07;101417.22;;;22.52;83.60
29825;BME280;16713;52.916;12.834;2023-08-20T03:40:34;101424.75;;;22.58;83.28
29825;BME280;16713;52.916;12.834;2023-08-20T03:43:00;101423.97;;;22.58;83.34
29825;BME280;16713;52.916;12.834;2023-08-20T03:45:28;101421.31;;;22.44;83.61
29825;BME280;16713;52.916;12.834;2023-08-20T03:47:56;101427.31;;;22.46;84.32
29825;BME280;16713;52.916;12.834;2023-08-20T03:50:22;101417.75;;;22.43;84.12
29825;BME280;16713;52.916;12.834;2023-08-20T03:52:49;101414.13;;;22.46;84.19
29825;BME280;16713;52.916;12.834;2023-08-20T03:55:15;101418.03;;;22.52;83.24
29825;BME280;16713;52.916;12.834;2023-08-20T03:57:42;101410.56;;;22.42;84.17
29825;BME280;16713;52.916;12.834;2023-08-20T04:00:09;101420.50;;;22.47;83.15
29825;BME280;16713;52.916;12.834;2023-08-20T04:02:36;101436.56;;;22.39;83.19
29825;BME280;16713;52.916;12.834;2023-08-20T04:05:02;101438.59;;;22.39;84.24
29825;BME280;16713;52.916;12.834;2023-08-20T04:07:29;101431.31;;;22.45;83.20
29825;BME280;16713;52.916;12.834;2023-08-20T04:09:56;101430.88;;;22.13;83.64
29825;BME280;16713;52.916;12.834;2023-08-20T04:12:22;101443.91;;;22.26;83.86
29825;BME280;16713;52.916;12.834;2023-08-20T04:14:49;101432.00;;;22.22;84.07
29825;BME280;16713;52.916;12.834;2023-08-20T04:17:15;101423.22;;;22.17;84.49
29825;BME280;16713;52.916;12.834;2023-08-20T04:19:42;101413.47;;;21.98;83.69
29825;BME280;16713;52.916;12.834;2023-08-20T04:22:08;101420.63;;;22.36;84.17
29825;BME280;16713;52.916;12.834;2023-08-20T04:24:35;101420.00;;;22.22;82.79
29825;BME280;16713;52.916;12.834;2023-08-20T04:27:01;101429.13;;;22.29;83.57
29825;BME280;16713;52.916;12.834;2023-08-20T04:29:28;101428.44;;;21.78;84.49
29825;BME280;16713;52.916;12.834;2023-08-20T04:31:54;101432.78;;;22.19;83.62
29825;BME280;16713;52.916;12.834;2023-08-20T04:34:20;101421.88;;;21.95;83.53
29825;BME280;16713;52.916;12.834;2023-08-20T04:36:47;101422.81;;;22.18;83.15
29825;BME280;16713;52.916;12.834;2023-08-20T04:39:13;101431.25;;;22.15;83.75
29825;BME280;16713;52.916;12.834;2023-08-20T04:41:40;101436.09;;;22.07;82.90
29825;BME280;16713;52.916;12.834;2023-08-20T04:44:06;101448.06;;;22.11;83.13
29825;BME280;16713;52.916;12.834;2023-08-20T04:46:33;101453.31;;;22.02;82.38
29825;BME280;16713;52.916;12.834;2023-08-20T04:48:59;101455.09;;;22.26;81.95
29825;BME280;16713;52.916;12.834;2023-08-20T04:51:26;101453.63;;;22.15;83.04
29825;BME280;16713;52.916;12.834;2023-08-20T04:53:52;101453.88;;;22.31;81.81
29825;BME280;16713;52.916;12.834;2023-08-20T04:56:18;101440.84;;;22.14;81.55
29825;BME280;16713;52.916;12.834;2023-08-20T04:58:45;101440.84;;;22.14;81.65
29825;BME280;16713;52.916;12.834;2023-08-20T05:01:11;101448.38;;;22.17;81.57
29825;BME280;16713;52.916;12.834;2023-08-20T05:03:38;101447.19;;;22.21;80.87
29825;BME280;16713;52.916;12.834;2023-08-20T05:06:04;101455.06;;;22.30;81.27
29825;BME280;16713;52.916;12.834;2023-08-20T05:08:31;101461.03;;;22.32;81.09
29825;BME280;16713;52.916;12.834;2023-08-20T05:10:57;101469.59;;;22.11;81.42
29825;BME280;16713;52.916;12.834;2023-08-20T05:13:24;101474.34;;;22.21;81.34
29825;BME280;16713;52.916;12.834;2023-08-20T05:15:50;101479.63;;;22.08;81.59
29825;BME280;16713;52.916;12.834;2023-08-20T05:18:17;101494.63;;;22.25;81.31
29825;BME280;16713;52.916;12.834;2023-08-20T05:20:43;101496.25;;;22.26;81.29
29825;BME280;16713;52.916;12.834;2023-08-20T05:23:10;101493.16;;;22.13;81.37
29825;BME280;16713;52.916;12.834;2023-08-20T05:25:36;101499.88;;;22.23;81.20
29825;BME280;16713;52.916;12.834;2023-08-20T05:28:03;101503.41;;;22.27;80.23
29825;BME280;16713;52.916;12.834;2023-08-20T05:30:29;101496.75;;;22.10;80.50
29825;BME280;16713;52.916;12.834;2023-08-20T05:32:56;101500.72;;;22.13;81.07
29825;BME280;16713;52.916;12.834;2023-08-20T05:35:22;101505.06;;;22.17;81.23
29825;BME280;16713;52.916;12.834;2023-08-20T05:37:49;101507.88;;;22.21;81.22
29825;BME280;16713;52.916;12.834;2023-08-20T05:40:15;101507.16;;;22.10;81.20
29825;BME280;16713;52.916;12.834;2023-08-20T05:42:42;101519.84;;;22.18;80.83
29825;BME280;16713;52.916;12.834;2023-08-20T05:45:09;101514.25;;;22.18;80.70
29825;BME280;16713;52.916;12.834;2023-08-20T05:47:35;101521.44;;;22.19;80.33
29825;BME280;16713;52.916;12.834;2023-08-20T05:50:03;101529.84;;;22.15;79.78
29825;BME280;16713;52.916;12.834;2023-08-20T05:52:29;101532.22;;;22.17;79.88
29825;BME280;16713;52.916;12.834;2023-08-20T05:54:56;101538.22;;;22.15;79.74
29825;BME280;16713;52.916;12.834;2023-08-20T05:57:22;101545.91;;;22.08;80.01
29825;BME280;16713;52.916;12.834;2023-08-20T05:59:49;101558.19;;;22.21;80.11
29825;BME280;16713;52.916;12.834;2023-08-20T06:02:16;101559.81;;;22.15;79.61
29825;BME280;16713;52.916;12.834;2023-08-20T06:04:44;101557.75;;;22.22;79.55
29825;BME280;16713;52.916;12.834;2023-08-20T06:07:11;101559.00;;;22.14;79.31
29825;BME280;16713;52.916;12.834;2023-08-20T06:09:37;101560.56;;;22.19;79.96
29825;BME280;16713;52.916;12.834;2023-08-20T06:12:04;101556.19;;;22.21;79.36
29825;BME280;16713;52.916;12.834;2023-08-20T06:14:30;101558.47;;;22.30;79.50
29825;BME280;16713;52.916;12.834;2023-08-20T06:16:57;101565.00;;;22.13;79.04
29825;BME280;16713;52.916;12.834;2023-08-20T06:19:23;101557.13;;;22.01;78.89
29825;BME280;16713;52.916;12.834;2023-08-20T06:21:49;101554.13;;;22.25;79.11
29825;BME280;16713;52.916;12.834;2023-08-20T06:24:16;101551.03;;;22.13;78.62
29825;BME280;16713;52.916;12.834;2023-08-20T06:26:42;101567.81;;;22.13;79.16
29825;BME280;16713;52.916;12.834;2023-08-20T06:29:11;101577.03;;;22.10;79.31
29825;BME280;16713;52.916;12.834;2023-08-20T06:31:37;101581.69;;;22.20;78.55
29825;BME280;16713;52.916;12.834;2023-08-20T06:34:04;101578.25;;;22.05;77.76
29825;BME280;16713;52.916;12.834;2023-08-20T06:36:30;101581.06;;;22.05;78.67
29825;BME280;16713;52.916;12.834;2023-08-20T06:38:57;101586.66;;;22.05;78.07
29825;BME280;16713;52.916;12.834;2023-08-20T06:41:23;101589.06;;;22.00;78.05
29825;BME280;16713;52.916;12.834;2023-08-20T06:43:50;101581.81;;;22.06;76.90
29825;BME280;16713;52.916;12.834;2023-08-20T06:46:16;101588.91;;;22.17;76.92
29825;BME280;16713;52.916;12.834;2023-08-20T06:48:42;101578.44;;;22.32;76.43
29825;BME280;16713;52.916;12.834;2023-08-20T06:51:15;101573.72;;;22.25;77.38
29825;BME280;16713;52.916;12.834;2023-08-20T06:53:42;101587.25;;;22.30;76.74
29825;BME280;16713;52.916;12.834;2023-08-20T06:56:09;101587.22;;;22.34;76.61
29825;BME280;16713;52.916;12.834;2023-08-20T06:58:36;101591.63;;;22.28;75.63
29825;BME280;16713;52.916;12.834;2023-08-20T07:01:02;101590.75;;;22.38;75.96
29825;BME280;16713;52.916;12.834;2023-08-20T07:06:05;101601.78;;;22.52;75.61
29825;BME280;16713;52.916;12.834;2023-08-20T07:08:32;101614.09;;;22.61;75.17
29825;BME280;16713;52.916;12.834;2023-08-20T07:10:58;101618.44;;;22.66;74.12
29825;BME280;16713;52.916;12.834;2023-08-20T07:13:25;101621.25;;;22.66;74.04
29825;BME280;16713;52.916;12.834;2023-08-20T07:15:52;101605.56;;;22.75;73.27
29825;BME280;16713;52.916;12.834;2023-08-20T07:18:18;101610.84;;;22.66;71.42
29825;BME280;16713;52.916;12.834;2023-08-20T07:20:45;101610.78;;;22.73;71.05
29825;BME280;16713;52.916;12.834;2023-08-20T07:23:12;101606.75;;;22.74;70.99
29825;BME280;16713;52.916;12.834;2023-08-20T07:25:40;101613.13;;;22.78;70.61
29825;BME280;16713;52.916;12.834;2023-08-20T07:28:08;101606.25;;;22.83;70.55
29825;BME280;16713;52.916;12.834;2023-08-20T07:30:35;101610.28;;;22.85;69.55
29825;BME280;16713;52.916;12.834;2023-08-20T07:33:03;101607.75;;;22.95;69.02
29825;BME280;16713;52.916;12.834;2023-08-20T07:35:31;101619.25;;;23.04;69.58
29825;BME280;16713;52.916;12.834;2023-08-20T07:37:58;101620.78;;;23.08;68.57
29825;BME280;16713;52.916;12.834;2023-08-20T07:40:25;101621.97;;;23.11;68.44
29825;BME280;16713;52.916;12.834;2023-08-20T07:42:51;101627.53;;;23.14;68.97
29825;BME280;16713;52.916;12.834;2023-08-20T07:45:17;101640.34;;;23.12;69.70
29825;BME280;16713;52.916;12.834;2023-08-20T07:47:44;101635.53;;;23.12;68.91
29825;BME280;16713;52.916;12.834;2023-08-20T07:50:11;101640.25;;;23.19;68.26
29825;BME280;16713;52.916;12.834;2023-08-20T07:52:37;101638.63;;;23.21;68.47
29825;BME280;16713;52.916;12.834;2023-08-20T07:55:04;101639.00;;;23.23;68.31
29825;BME280;16713;52.916;12.834;2023-08-20T07:57:30;101631.88;;;23.19;68.28
29825;BME280;16713;52.916;12.834;2023-08-20T07:59:57;101637.84;;;23.21;67.22
29825;BME280;16713;52.916;12.834;2023-08-20T08:02:23;101634.63;;;23.22;66.33
29825;BME280;16713;52.916;12.834;2023-08-20T08:04:50;101621.81;;;23.21;66.18
29825;BME280;16713;52.916;12.834;2023-08-20T08:07:16;101614.22;;;23.22;66.01
29825;BME280;16713;52.916;12.834;2023-08-20T08:09:43;101615.00;;;23.26;65.86
29825;BME280;16713;52.916;12.834;2023-08-20T08:12:09;101616.13;;;23.28;64.82
29825;BME280;16713;52.916;12.834;2023-08-20T08:14:36;101617.28;;;23.31;64.77
29825;BME280;16713;52.916;12.834;2023-08-20T08:17:02;101615.28;;;23.31;65.32
29825;BME280;16713;52.916;12.834;2023-08-20T08:19:29;101609.28;;;23.33;65.49
29825;BME280;16713;52.916;12.834;2023-08-20T08:21:56;101612.47;;;23.35;64.68
29825;BME280;16713;52.916;12.834;2023-08-20T08:24:22;101608.44;;;23.36;65.32
29825;BME280;16713;52.916;12.834;2023-08-20T08:26:49;101613.31;;;23.32;65.19
29825;BME280;16713;52.916;12.834;2023-08-20T08:29:15;101608.47;;;23.32;65.49
29825;BME280;16713;52.916;12.834;2023-08-20T08:31:41;101599.28;;;23.32;65.36
29825;BME280;16713;52.916;12.834;2023-08-20T08:34:08;101601.69;;;23.33;66.71
29825;BME280;16713;52.916;12.834;2023-08-20T08:36:34;101597.66;;;23.34;65.88
29825;BME280;16713;52.916;12.834;2023-08-20T08:39:03;101607.25;;;23.37;65.86
29825;BME280;16713;52.916;12.834;2023-08-20T08:41:30;101601.22;;;23.38;65.77
29825;BME280;16713;52.916;12.834;2023-08-20T08:43:58;101596.75;;;23.41;65.33
29825;BME280;16713;52.916;12.834;2023-08-20T08:46:25;101599.13;;;23.42;65.79
29825;BME280;16713;52.916;12.834;2023-08-20T08:48:52;101603.53;;;23.43;66.13
29825;BME280;16713;52.916;12.834;2023-08-20T08:51:19;101611.88;;;23.50;66.04
29825;BME280;16713;52.916;12.834;2023-08-20T08:53:46;101606.63;;;23.52;66.09
29825;BME280;16713;52.916;12.834;2023-08-20T08:56:12;101612.19;;;23.56;67.17
29825;BME280;16713;52.916;12.834;2023-08-20T08:58:39;101620.13;;;23.61;66.28
29825;BME280;16713;52.916;12.834;2023-08-20T09:01:05;101628.88;;;23.63;65.85
29825;BME280;16713;52.916;12.834;2023-08-20T09:03:32;101623.66;;;23.65;66.82
29825;BME280;16713;52.916;12.834;2023-08-20T09:06:00;101626.00;;;23.70;66.27
29825;BME280;16713;52.916;12.834;2023-08-20T09:08:30;101640.03;;;23.66;65.47
29825;BME280;16713;52.916;12.834;2023-08-20T09:10:59;101638.34;;;23.72;66.18
29825;BME280;16713;52.916;12.834;2023-08-20T09:13:36;101645.94;;;23.75;65.05
29825;BME280;16713;52.916;12.834;2023-08-20T09:16:05;101656.66;;;23.80;65.53
29825;BME280;16713;52.916;12.834;2023-08-20T09:18:44;101651.41;;;23.82;65.27
29825;BME280;16713;52.916;12.834;2023-08-20T09:21:12;101651.38;;;23.86;65.45
29825;BME280;16713;52.916;12.834;2023-08-20T09:23:39;101647.00;;;23.85;64.97
29825;BME280;16713;52.916;12.834;2023-08-20T09:26:07;101648.06;;;23.94;65.04
29825;BME280;16713;52.916;12.834;2023-08-20T09:28:44;101655.13;;;24.02;65.18
29825;BME280;16713;52.916;12.834;2023-08-20T09:31:12;101655.84;;;24.06;64.50
29825;BME280;16713;52.916;12.834;2023-08-20T09:33:53;101656.75;;;24.00;64.04
29825;BME280;16713;52.916;12.834;2023-08-20T09:36:30;101646.19;;;24.11;64.39
29825;BME280;16713;52.916;12.834;2023-08-20T09:38:57;101655.34;;;24.15;64.44
29825;BME280;16713;52.916;12.834;2023-08-20T09:41:24;101650.56;;;24.15;65.32
29825;BME280;16713;52.916;12.834;2023-08-20T09:43:58;101647.66;;;24.19;63.73
29825;BME280;16713;52.916;12.834;2023-08-20T09:46:26;101642.00;;;24.22;63.93
29825;BME280;16713;52.916;12.834;2023-08-20T09:48:56;101636.81;;;24.21;63.59
29825;BME280;16713;52.916;12.834;2023-08-20T09:51:26;101629.59;;;24.23;64.59
29825;BME280;16713;52.916;12.834;2023-08-20T09:54:05;101624.88;;;24.17;63.91
29825;BME280;16713;52.916;12.834;2023-08-20T09:56:38;101626.03;;;24.19;63.09
29825;BME280;16713;52.916;12.834;2023-08-20T09:59:06;101636.34;;;24.26;62.40
29825;BME280;16713;52.916;12.834;2023-08-20T10:01:32;101637.44;;;24.32;62.48
29825;BME280;16713;52.916;12.834;2023-08-20T10:03:59;101636.09;;;24.40;62.08
29825;BME280;16713;52.916;12.834;2023-08-20T10:06:26;101645.69;;;24.43;63.46
29825;BME280;16713;52.916;12.834;2023-08-20T10:08:54;101641.28;;;24.42;61.87
29825;BME280;16713;52.916;12.834;2023-08-20T10:11:20;101644.16;;;24.38;60.17
29825;BME280;16713;52.916;12.834;2023-08-20T10:13:47;101645.25;;;24.44;60.60
29825;BME280;16713;52.916;12.834;2023-08-20T10:16:17;101641.66;;;24.44;59.53
29825;BME280;16713;52.916;12.834;2023-08-20T10:18:48;101633.72;;;24.39;59.44
29825;BME280;16713;52.916;12.834;2023-08-20T10:21:14;101639.66;;;24.44;59.94
29825;BME280;16713;52.916;12.834;2023-08-20T10:23:41;101635.75;;;24.38;58.47
29825;BME280;16713;52.916;12.834;2023-08-20T10:26:10;101633.56;;;24.49;59.01
29825;BME280;16713;52.916;12.834;2023-08-20T10:28:37;101642.50;;;24.41;58.34
29825;BME280;16713;52.916;12.834;2023-08-20T10:31:07;101638.84;;;24.44;57.97
29825;BME280;16713;52.916;12.834;2023-08-20T10:33:55;101649.84;;;24.35;58.53
29825;BME280;16713;52.916;12.834;2023-08-20T10:36:23;101653.06;;;24.33;59.36
29825;BME280;16713;52.916;12.834;2023-08-20T10:38:56;101654.53;;;24.41;58.07
29825;BME280;16713;52.916;12.834;2023-08-20T10:41:28;101658.47;;;24.44;57.78
29825;BME280;16713;52.916;12.834;2023-08-20T10:43:58;101657.69;;;24.43;59.81
29825;BME280;16713;52.916;12.834;2023-08-20T10:46:28;101655.78;;;24.37;59.31
29825;BME280;16713;52.916;12.834;2023-08-20T10:48:59;101661.00;;;24.38;58.42
29825;BME280;16713;52.916;12.834;2023-08-20T10:51:36;101653.84;;;24.34;60.10
29825;BME280;16713;52.916;12.834;2023-08-20T10:54:07;101657.81;;;24.36;59.46
29825;BME280;16713;52.916;12.834;2023-08-20T10:56:38;101656.22;;;24.35;59.16
29825;BME280;16713;52.916;12.834;2023-08-20T10:59:10;101661.75;;;24.39;59.31
29825;BME280;16713;52.916;12.834;2023-08-20T11:01:39;101654.59;;;24.38;57.06
29825;BME280;16713;52.916;12.834;2023-08-20T11:04:06;101655.78;;;24.37;57.33
29825;BME280;16713;52.916;12.834;2023-08-20T11:06:33;101650.53;;;24.39;58.09
29825;BME280;16713;52.916;12.834;2023-08-20T11:09:01;101651.34;;;24.39;58.11
29825;BME280;16713;52.916;12.834;2023-08-20T11:11:30;101648.13;;;24.41;57.63
29825;BME280;16713;52.916;12.834;2023-08-20T11:13:57;101651.72;;;24.41;58.56
29825;BME280;16713;52.916;12.834;2023-08-20T11:16:23;101648.13;;;24.41;58.23
29825;BME280;16713;52.916;12.834;2023-08-20T11:18:52;101647.25;;;24.44;58.72
29825;BME280;16713;52.916;12.834;2023-08-20T11:21:19;101650.44;;;24.46;57.85
29825;BME280;16713;52.916;12.834;2023-08-20T11:23:46;101645.53;;;24.50;58.13
29825;BME280;16713;52.916;12.834;2023-08-20T11:26:17;101642.41;;;24.48;57.64
29825;BME280;16713;52.916;12.834;2023-08-20T11:28:47;101639.16;;;24.49;58.27
29825;BME280;16713;52.916;12.834;2023-08-20T11:31:13;101645.13;;;24.51;57.76
29825;BME280;16713;52.916;12.834;2023-08-20T11:33:40;101641.81;;;24.56;58.58
29825;BME280;16713;52.916;12.834;2023-08-20T11:36:06;101645.84;;;24.55;58.54
29825;BME280;16713;52.916;12.834;2023-08-20T11:38:33;101651.75;;;24.61;58.38
29825;BME280;16713;52.916;12.834;2023-08-20T11:41:00;101646.50;;;24.63;57.55
29825;BME280;16713;52.916;12.834;2023-08-20T11:43:27;101645.75;;;24.62;58.39
29825;BME280;16713;52.916;12.834;2023-08-20T11:45:54;101640.47;;;24.64;57.16
29825;BME280;16713;52.916;12.834;2023-08-20T11:48:22;101638.03;;;24.66;57.64
29825;BME280;16713;52.916;12.834;2023-08-20T11:50:52;101643.72;;;24.63;57.32
29825;BME280;16713;52.916;12.834;2023-08-20T11:53:22;101639.75;;;24.60;56.26
29825;BME280;16713;52.916;12.834;2023-08-20T11:55:51;101639.75;;;24.60;55.50
29825;BME280;16713;52.916;12.834;2023-08-20T11:58:18;101640.13;;;24.62;55.22
29825;BME280;16713;52.916;12.834;2023-08-20T12:00:49;101640.84;;;24.66;54.30
29825;BME280;16713;52.916;12.834;2023-08-20T12:03:18;101652.84;;;24.70;54.84
29825;BME280;16713;52.916;12.834;2023-08-20T12:05:45;101649.22;;;24.70;54.11
29825;BME280;16713;52.916;12.834;2023-08-20T12:08:15;101645.63;;;24.69;54.33
29825;BME280;16713;52.916;12.834;2023-08-20T12:10:43;101648.38;;;24.73;53.78
29825;BME280;16713;52.916;12.834;2023-08-20T12:13:09;101649.94;;;24.74;54.07
29825;BME280;16713;52.916;12.834;2023-08-20T12:15:36;101656.28;;;24.78;53.74
29825;BME280;16713;52.916;12.834;2023-08-20T12:18:04;101636.41;;;24.69;53.83
29825;BME280;16713;52.916;12.834;2023-08-20T12:20:34;101635.56;;;24.72;53.21
29825;BME280;16713;52.916;12.834;2023-08-20T12:23:06;101632.44;;;24.66;52.91
29825;BME280;16713;52.916;12.834;2023-08-20T12:25:34;101638.81;;;24.70;52.67
29825;BME280;16713;52.916;12.834;2023-08-20T12:28:02;101633.53;;;24.72;51.47
29825;BME280;16713;52.916;12.834;2023-08-20T12:30:32;101631.97;;;24.71;53.41
29825;BME280;16713;52.916;12.834;2023-08-20T12:33:05;101633.97;;;24.71;52.79
29825;BME280;16713;52.916;12.834;2023-08-20T12:35:32;101629.59;;;24.70;53.29
29825;BME280;16713;52.916;12.834;2023-08-20T12:37:58;101636.41;;;24.69;54.44
29825;BME280;16713;52.916;12.834;2023-08-20T12:40:25;101636.41;;;24.69;54.66
29825;BME280;16713;52.916;12.834;2023-08-20T12:42:51;101637.59;;;24.68;55.14
29825;BME280;16713;52.916;12.834;2023-08-20T12:45:18;101645.63;;;24.69;54.97
29825;BME280;16713;52.916;12.834;2023-08-20T12:47:44;101643.63;;;24.70;54.55
29825;BME280;16713;52.916;12.834;2023-08-20T12:50:11;101636.03;;;24.67;55.19